createdAt,value
2018-08-30T00:01:34.487Z,100.00
2018-08-30T00:04:03.619Z,100.00
2018-08-30T00:06:32.740Z,100.00
2018-08-30T00:09:01.836Z,100.00
2018-08-30T00:11:30.920Z,100.00
2018-08-30T00:14:00.143Z,100.00
2018-08-30T00:16:29.262Z,100.00
2018-08-30T00:18:58.309Z,100.00
2018-08-30T00:21:27.411Z,100.00
2018-08-30T00:23:56.490Z,100.00
2018-08-30T00:26:25.622Z,100.00
2018-08-30T00:28:54.724Z,100.00
2018-08-30T00:31:23.865Z,100.00
2018-08-30T00:33:52.941Z,100.00
2018-08-30T00:36:22.018Z,100.00
2018-08-30T00:38:51.972Z,100.00
2018-08-30T00:41:21.126Z,100.00
2018-08-30T00:43:50.197Z,100.00
2018-08-30T00:46:19.502Z,100.00
2018-08-30T00:48:48.581Z,100.00
2018-08-30T00:51:17.704Z,100.00
2018-08-30T00:53:46.818Z,100.00
2018-08-30T00:56:15.899Z,100.00
2018-08-30T00:58:44.996Z,100.00
2018-08-30T01:01:14.122Z,100.00
2018-08-30T01:03:43.249Z,100.00
2018-08-30T01:06:12.334Z,100.00
2018-08-30T01:08:41.503Z,100.00
2018-08-30T01:11:10.568Z,100.00
2018-08-30T01:13:39.621Z,100.00
2018-08-30T01:16:08.791Z,100.00
2018-08-30T01:18:37.880Z,100.00
2018-08-30T01:21:06.944Z,100.00
2018-08-30T01:23:36.080Z,100.00
2018-08-30T01:26:05.226Z,100.00
2018-08-30T01:28:34.311Z,100.00
2018-08-30T01:31:03.544Z,100.00
2018-08-30T01:33:32.640Z,100.00
2018-08-30T01:36:01.709Z,100.00
2018-08-30T01:38:30.881Z,100.00
2018-08-30T01:41:04.223Z,100.00
2018-08-30T01:43:33.292Z,100.00
2018-08-30T01:46:02.355Z,100.00
2018-08-30T01:48:31.419Z,100.00
2018-08-30T01:51:00.564Z,100.00
2018-08-30T01:53:29.642Z,100.00
2018-08-30T01:55:58.756Z,100.00
2018-08-30T01:58:27.911Z,100.00
2018-08-30T02:00:56.999Z,100.00
2018-08-30T02:03:26.132Z,100.00
2018-08-30T02:05:55.263Z,100.00
2018-08-30T02:08:24.400Z,100.00
2018-08-30T02:10:53.502Z,100.00
2018-08-30T02:13:22.606Z,100.00
2018-08-30T02:16:07.023Z,100.00
2018-08-30T02:18:38.267Z,100.00
2018-08-30T02:21:07.416Z,100.00
2018-08-30T02:23:36.512Z,100.00
2018-08-30T02:26:05.636Z,100.00
2018-08-30T02:28:34.683Z,100.00
2018-08-30T02:31:03.785Z,100.00
2018-08-30T02:33:32.871Z,100.00
2018-08-30T02:36:01.979Z,100.00
2018-08-30T02:38:31.119Z,100.00
2018-08-30T02:41:00.230Z,100.00
2018-08-30T02:43:29.314Z,100.00
2018-08-30T02:45:58.423Z,100.00
2018-08-30T02:48:27.471Z,100.00
2018-08-30T02:50:56.573Z,100.00
2018-08-30T02:53:25.776Z,100.00
2018-08-30T02:55:54.880Z,100.00
2018-08-30T02:58:24.012Z,100.00
2018-08-30T03:00:53.094Z,100.00
2018-08-30T03:03:22.196Z,100.00
2018-08-30T03:05:51.322Z,100.00
2018-08-30T03:08:20.426Z,100.00
2018-08-30T03:10:49.586Z,100.00
2018-08-30T03:13:18.667Z,100.00
2018-08-30T03:15:47.768Z,100.00
2018-08-30T03:18:16.910Z,100.00
2018-08-30T03:20:45.985Z,100.00
2018-08-30T03:23:15.063Z,100.00
2018-08-30T03:25:44.161Z,100.00
2018-08-30T03:28:13.301Z,100.00
2018-08-30T03:30:42.459Z,100.00
2018-08-30T03:33:11.506Z,100.00
2018-08-30T03:35:40.571Z,100.00
2018-08-30T03:38:09.679Z,100.00
2018-08-30T03:40:38.804Z,100.00
2018-08-30T03:43:07.860Z,100.00
2018-08-30T03:45:36.965Z,100.00
2018-08-30T03:48:06.178Z,100.00
2018-08-30T03:50:35.284Z,100.00
2018-08-30T03:53:04.409Z,100.00
2018-08-30T03:55:33.528Z,100.00
2018-08-30T03:58:02.607Z,100.00
2018-08-30T04:00:31.712Z,100.00
2018-08-30T04:03:00.778Z,100.00
2018-08-30T04:05:29.879Z,100.00
2018-08-30T04:07:58.944Z,100.00
2018-08-30T04:10:28.047Z,100.00
2018-08-30T04:12:57.131Z,100.00
2018-08-30T04:15:26.184Z,100.00
2018-08-30T04:17:55.248Z,100.00
2018-08-30T04:20:24.356Z,100.00
2018-08-30T04:22:53.448Z,100.00
2018-08-30T04:25:22.534Z,100.00
2018-08-30T04:27:51.616Z,100.00
2018-08-30T04:30:20.719Z,100.00
2018-08-30T04:32:49.826Z,100.00
2018-08-30T04:35:18.899Z,100.00
2018-08-30T04:37:47.993Z,100.00
2018-08-30T04:40:17.083Z,100.00
2018-08-30T04:42:46.233Z,100.00
2018-08-30T04:45:15.325Z,100.00
2018-08-30T04:47:44.442Z,100.00
2018-08-30T04:50:13.623Z,100.00
2018-08-30T04:52:42.714Z,100.00
2018-08-30T04:55:11.806Z,100.00
2018-08-30T04:57:40.911Z,100.00
2018-08-30T05:00:10.018Z,100.00
2018-08-30T05:02:39.101Z,100.00
2018-08-30T05:05:08.233Z,100.00
2018-08-30T05:07:37.360Z,100.00
2018-08-30T05:10:06.577Z,100.00
2018-08-30T05:12:35.763Z,100.00
2018-08-30T05:15:05.023Z,100.00
2018-08-30T05:17:34.146Z,100.00
2018-08-30T05:20:03.250Z,100.00
2018-08-30T05:22:32.308Z,100.00
2018-08-30T05:25:01.846Z,100.00
2018-08-30T05:27:31.145Z,100.00
2018-08-30T05:30:00.233Z,100.00
2018-08-30T05:32:29.309Z,100.00
2018-08-30T05:34:58.471Z,100.00
2018-08-30T05:37:27.544Z,100.00
2018-08-30T05:39:56.622Z,100.00
2018-08-30T05:42:25.957Z,100.00
2018-08-30T05:44:55.044Z,100.00
2018-08-30T05:47:24.160Z,100.00
2018-08-30T05:49:53.205Z,100.00
2018-08-30T05:52:22.338Z,100.00
2018-08-30T05:54:51.471Z,100.00
2018-08-30T05:57:20.551Z,100.00
2018-08-30T05:59:49.697Z,100.00
2018-08-30T06:05:10.148Z,100.00
2018-08-30T06:07:39.238Z,100.00
2018-08-30T06:10:08.337Z,100.00
2018-08-30T06:12:37.586Z,100.00
2018-08-30T06:15:07.056Z,100.00
2018-08-30T06:17:36.460Z,100.00
2018-08-30T06:20:05.807Z,100.00
2018-08-30T06:22:35.094Z,100.00
2018-08-30T06:25:04.584Z,100.00
2018-08-30T06:27:35.306Z,100.00
2018-08-30T06:30:05.036Z,100.00
2018-08-30T06:32:34.862Z,100.00
2018-08-30T06:35:04.507Z,100.00
2018-08-30T06:37:34.232Z,100.00
2018-08-30T06:40:04.264Z,100.00
2018-08-30T06:42:34.689Z,100.00
2018-08-30T06:45:03.991Z,100.00
2018-08-30T06:47:33.118Z,100.00
2018-08-30T06:50:02.266Z,100.00
2018-08-30T06:52:31.407Z,100.00
2018-08-30T06:55:00.535Z,100.00
2018-08-30T06:57:29.650Z,100.00
2018-08-30T06:59:58.785Z,100.00
2018-08-30T07:02:27.914Z,100.00
2018-08-30T07:04:57.085Z,99.96
2018-08-30T07:07:26.408Z,99.79
2018-08-30T07:09:55.509Z,99.54
2018-08-30T07:12:24.622Z,99.52
2018-08-30T07:14:57.324Z,99.29
2018-08-30T07:17:26.437Z,98.95
2018-08-30T07:19:55.525Z,98.89
2018-08-30T07:22:24.667Z,98.46
2018-08-30T07:24:53.839Z,98.41
2018-08-30T07:27:22.998Z,98.41
2018-08-30T07:29:52.122Z,97.28
2018-08-30T07:32:21.244Z,97.60
2018-08-30T07:34:50.388Z,97.22
2018-08-30T07:37:19.425Z,96.17
2018-08-30T07:39:48.560Z,93.60
2018-08-30T07:42:17.688Z,93.95
2018-08-30T07:44:46.742Z,94.84
2018-08-30T07:47:15.873Z,94.78
2018-08-30T07:49:44.944Z,93.97
2018-08-30T07:52:14.024Z,94.10
2018-08-30T07:54:43.123Z,92.56
2018-08-30T07:57:12.226Z,91.61
2018-08-30T07:59:41.322Z,92.51
2018-08-30T08:02:10.442Z,92.86
2018-08-30T08:04:39.539Z,92.98
2018-08-30T08:07:08.690Z,93.24
2018-08-30T08:09:37.775Z,93.29
2018-08-30T08:12:06.971Z,92.85
2018-08-30T08:14:36.007Z,91.06
2018-08-30T08:17:05.327Z,91.64
2018-08-30T08:19:34.558Z,91.20
2018-08-30T08:22:03.764Z,91.24
2018-08-30T08:24:32.857Z,90.61
2018-08-30T08:27:02.103Z,88.74
2018-08-30T08:29:31.215Z,88.30
2018-08-30T08:32:00.317Z,86.96
2018-08-30T08:34:29.454Z,86.28
2018-08-30T08:36:58.605Z,85.37
2018-08-30T08:39:27.709Z,84.16
2018-08-30T08:41:56.773Z,83.51
2018-08-30T08:44:26.109Z,83.22
2018-08-30T08:46:55.208Z,84.27
2018-08-30T08:49:24.304Z,82.28
2018-08-30T08:51:53.451Z,81.84
2018-08-30T08:54:22.592Z,80.22
2018-08-30T08:56:51.744Z,79.56
2018-08-30T08:59:20.902Z,79.76
2018-08-30T09:01:49.969Z,78.62
2018-08-30T09:04:19.087Z,79.75
2018-08-30T09:06:48.196Z,78.22
2018-08-30T09:09:17.298Z,78.85
2018-08-30T09:11:46.426Z,77.68
2018-08-30T09:14:15.502Z,78.35
2018-08-30T09:16:44.627Z,78.63
2018-08-30T09:19:13.750Z,78.78
2018-08-30T09:21:42.820Z,79.85
2018-08-30T09:24:11.967Z,77.04
2018-08-30T09:26:41.084Z,74.56
2018-08-30T09:29:10.463Z,72.81
2018-08-30T09:31:39.569Z,72.15
2018-08-30T09:34:08.631Z,71.63
2018-08-30T09:36:37.734Z,71.13
2018-08-30T09:39:08.285Z,71.96
2018-08-30T09:41:37.374Z,71.76
2018-08-30T09:44:06.633Z,70.90
2018-08-30T09:46:35.751Z,70.32
2018-08-30T09:49:05.179Z,70.53
2018-08-30T09:51:34.395Z,69.44
2018-08-30T09:54:03.494Z,69.98
2018-08-30T09:56:32.604Z,69.04
2018-08-30T09:59:01.646Z,67.31
2018-08-30T10:01:36.034Z,68.07
2018-08-30T10:04:05.113Z,69.70
2018-08-30T10:06:34.219Z,69.61
2018-08-30T10:09:03.477Z,69.84
2018-08-30T10:11:32.579Z,66.34
2018-08-30T10:14:01.647Z,64.11
2018-08-30T10:16:30.771Z,63.37
2018-08-30T10:18:59.877Z,64.36
2018-08-30T10:21:29.016Z,62.02
2018-08-30T10:23:58.104Z,61.41
2018-08-30T10:26:27.172Z,60.44
2018-08-30T10:28:56.286Z,62.04
2018-08-30T10:31:25.369Z,61.94
2018-08-30T10:33:54.511Z,61.19
2018-08-30T10:36:23.585Z,61.47
2018-08-30T10:38:52.695Z,61.41
2018-08-30T10:41:21.799Z,58.66
2018-08-30T10:43:50.921Z,58.27
2018-08-30T10:46:20.416Z,57.96
2018-08-30T10:48:49.532Z,56.05
2018-08-30T10:51:18.664Z,56.24
2018-08-30T10:53:47.866Z,55.59
2018-08-30T10:56:17.032Z,57.30
2018-08-30T10:58:46.143Z,56.74
2018-08-30T11:01:15.262Z,54.44
2018-08-30T11:03:44.415Z,52.00
2018-08-30T11:06:13.656Z,51.39
2018-08-30T11:08:42.801Z,51.68
2018-08-30T11:11:11.879Z,53.58
2018-08-30T11:13:40.967Z,50.75
2018-08-30T11:16:10.096Z,53.37
2018-08-30T11:18:39.246Z,52.90
2018-08-30T11:21:08.340Z,51.08
2018-08-30T11:23:37.468Z,50.17
2018-08-30T11:26:06.588Z,50.86
2018-08-30T11:28:35.709Z,50.97
2018-08-30T11:31:04.808Z,49.94
2018-08-30T11:33:33.901Z,51.04
2018-08-30T11:36:02.972Z,50.58
2018-08-30T11:38:32.175Z,51.49
2018-08-30T11:41:01.249Z,52.17
2018-08-30T11:43:30.403Z,50.66
2018-08-30T11:45:59.462Z,48.25
2018-08-30T11:48:28.676Z,48.49
2018-08-30T11:50:58.168Z,50.62
2018-08-30T11:53:27.258Z,50.28
2018-08-30T11:55:56.322Z,51.30
2018-08-30T11:58:25.487Z,51.93
2018-08-30T12:00:54.598Z,51.22
2018-08-30T12:03:23.748Z,50.24
2018-08-30T12:05:53.377Z,50.70
2018-08-30T12:08:22.451Z,48.19
2018-08-30T12:10:51.762Z,46.02
2018-08-30T12:13:20.770Z,46.97
2018-08-30T12:15:49.876Z,45.58
2018-08-30T12:18:18.948Z,46.26
2018-08-30T12:20:48.177Z,46.09
2018-08-30T12:23:17.214Z,46.94
2018-08-30T12:25:46.412Z,46.05
2018-08-30T12:28:15.582Z,44.61
2018-08-30T12:30:44.593Z,43.31
2018-08-30T12:33:13.714Z,42.39
2018-08-30T12:35:43.012Z,42.31
2018-08-30T12:38:11.940Z,41.67
2018-08-30T12:40:41.049Z,40.44
2018-08-30T12:43:10.263Z,40.55
2018-08-30T12:45:39.300Z,40.72
2018-08-30T12:48:08.383Z,41.47
2018-08-30T12:50:37.575Z,42.14
2018-08-30T12:53:06.938Z,39.24
2018-08-30T12:55:36.103Z,39.96
2018-08-30T12:58:05.776Z,41.17
2018-08-30T13:00:34.873Z,42.17
2018-08-30T13:03:04.078Z,41.55
2018-08-30T13:05:33.242Z,40.44
2018-08-30T13:08:02.321Z,39.37
2018-08-30T13:10:31.455Z,40.20
2018-08-30T13:13:00.776Z,38.94
2018-08-30T13:15:29.754Z,40.15
2018-08-30T13:17:58.777Z,40.25
2018-08-30T13:20:27.959Z,39.50
2018-08-30T13:22:56.799Z,39.34
2018-08-30T13:25:26.370Z,37.49
2018-08-30T13:27:55.420Z,38.44
2018-08-30T13:30:24.820Z,37.01
2018-08-30T13:32:53.920Z,38.17
2018-08-30T13:35:23.162Z,39.91
2018-08-30T13:37:52.254Z,41.58
2018-08-30T13:40:21.587Z,38.66
2018-08-30T13:42:50.490Z,37.25
2018-08-30T13:45:19.506Z,37.62
2018-08-30T13:47:48.636Z,35.74
2018-08-30T13:50:17.658Z,37.52
2018-08-30T13:52:46.860Z,35.11
2018-08-30T13:55:16.048Z,33.67
2018-08-30T13:57:45.307Z,33.25
2018-08-30T14:00:14.536Z,34.20
2018-08-30T14:02:43.653Z,35.67
2018-08-30T14:05:12.571Z,35.94
2018-08-30T14:07:41.550Z,35.20
2018-08-30T14:10:10.685Z,34.35
2018-08-30T14:12:39.888Z,35.64
2018-08-30T14:15:09.169Z,36.39
2018-08-30T14:17:37.738Z,37.12
2018-08-30T14:20:07.175Z,38.51
2018-08-30T14:22:36.263Z,40.84
2018-08-30T14:25:05.568Z,41.07
2018-08-30T14:27:34.680Z,41.10
2018-08-30T14:30:03.888Z,40.60
2018-08-30T14:32:33.001Z,39.71
2018-08-30T14:35:02.078Z,37.84
2018-08-30T14:37:31.240Z,37.42
2018-08-30T14:40:00.458Z,36.23
2018-08-30T14:42:32.613Z,36.29
2018-08-30T14:45:01.710Z,36.47
2018-08-30T14:47:30.884Z,35.79
2018-08-30T14:50:00.102Z,36.35
2018-08-30T14:52:29.169Z,36.83
2018-08-30T14:54:58.317Z,36.96
2018-08-30T14:57:27.822Z,37.21
2018-08-30T14:59:56.896Z,36.74
2018-08-30T15:02:25.979Z,36.29
2018-08-30T15:04:55.066Z,36.59
2018-08-30T15:07:24.127Z,37.60
2018-08-30T15:09:53.219Z,35.60
2018-08-30T15:12:22.351Z,35.87
2018-08-30T15:14:51.440Z,36.87
2018-08-30T15:17:20.593Z,36.20
2018-08-30T15:19:49.698Z,36.85
2018-08-30T15:22:18.770Z,37.15
2018-08-30T15:24:47.877Z,38.02
2018-08-30T15:27:16.944Z,37.65
2018-08-30T15:29:46.058Z,36.51
2018-08-30T15:32:15.122Z,36.73
2018-08-30T15:34:44.246Z,37.41
2018-08-30T15:37:13.420Z,38.23
2018-08-30T15:39:42.542Z,38.28
2018-08-30T15:42:11.905Z,38.53
2018-08-30T15:44:41.205Z,38.73
2018-08-30T15:47:10.439Z,38.90
2018-08-30T15:49:39.473Z,38.98
2018-08-30T15:52:08.588Z,38.57
2018-08-30T15:54:37.666Z,38.82
2018-08-30T15:57:06.926Z,40.16
2018-08-30T15:59:36.079Z,40.67
2018-08-30T16:02:05.284Z,40.73
2018-08-30T16:04:34.423Z,41.78
2018-08-30T16:07:03.522Z,41.61
2018-08-30T16:09:32.659Z,42.22
2018-08-30T16:12:01.707Z,42.06
2018-08-30T16:14:30.881Z,41.95
2018-08-30T16:16:59.975Z,42.18
2018-08-30T16:19:29.063Z,42.30
2018-08-30T16:21:58.215Z,41.95
2018-08-30T16:24:27.251Z,42.40
2018-08-30T16:26:56.436Z,41.94
2018-08-30T16:29:25.587Z,42.34
2018-08-30T16:31:54.709Z,42.00
2018-08-30T16:34:23.801Z,41.97
2018-08-30T16:36:52.909Z,42.24
2018-08-30T16:39:22.019Z,42.36
2018-08-30T16:41:51.146Z,41.97
2018-08-30T16:44:20.174Z,42.08
2018-08-30T16:46:49.273Z,42.75
2018-08-30T16:49:18.373Z,42.34
2018-08-30T16:51:47.432Z,43.64
2018-08-30T16:54:16.501Z,43.27
2018-08-30T16:56:45.617Z,43.34
2018-08-30T16:59:14.760Z,44.42
2018-08-30T17:01:43.823Z,44.35
2018-08-30T17:04:12.960Z,44.05
2018-08-30T17:06:42.066Z,44.69
2018-08-30T17:09:11.204Z,44.84
2018-08-30T17:11:40.731Z,44.13
2018-08-30T17:14:09.796Z,44.12
2018-08-30T17:16:39.180Z,43.59
2018-08-30T17:19:19.524Z,43.70
2018-08-30T17:21:48.678Z,43.97
2018-08-30T17:24:17.812Z,44.00
2018-08-30T17:26:46.879Z,44.59
2018-08-30T17:29:16.088Z,44.68
2018-08-30T17:31:45.274Z,44.45
2018-08-30T17:34:14.431Z,44.88
2018-08-30T17:36:43.573Z,44.35
2018-08-30T17:39:12.694Z,44.83
2018-08-30T17:41:41.841Z,44.98
2018-08-30T17:44:11.137Z,44.72
2018-08-30T17:46:40.199Z,45.40
2018-08-30T17:49:09.313Z,47.21
2018-08-30T17:51:38.572Z,45.65
2018-08-30T17:54:07.773Z,46.49
2018-08-30T17:56:37.059Z,46.06
2018-08-30T17:59:06.280Z,45.96
2018-08-30T18:01:35.444Z,46.52
2018-08-30T18:04:04.581Z,46.90
2018-08-30T18:06:33.719Z,46.88
2018-08-30T18:09:02.844Z,47.32
2018-08-30T18:11:31.924Z,48.26
2018-08-30T18:14:01.197Z,49.36
2018-08-30T18:16:30.381Z,50.56
2018-08-30T18:18:59.456Z,51.57
2018-08-30T18:21:28.580Z,51.89
2018-08-30T18:23:57.826Z,52.31
2018-08-30T18:26:27.038Z,53.07
2018-08-30T18:28:56.220Z,53.12
2018-08-30T18:31:25.320Z,53.13
2018-08-30T18:33:54.394Z,53.28
2018-08-30T18:36:23.549Z,54.16
2018-08-30T18:38:55.535Z,54.31
2018-08-30T18:41:27.599Z,54.13
2018-08-30T18:43:59.679Z,53.85
2018-08-30T18:49:21.359Z,54.54
2018-08-30T18:51:50.385Z,54.56
2018-08-30T18:54:19.598Z,55.60
2018-08-30T18:56:48.676Z,55.39
2018-08-30T18:59:17.756Z,56.19
2018-08-30T19:01:46.894Z,56.09
2018-08-30T19:04:16.023Z,56.92
2018-08-30T19:06:45.126Z,57.36
2018-08-30T19:09:14.199Z,56.79
2018-08-30T19:11:43.372Z,57.45
2018-08-30T19:14:12.524Z,57.82
2018-08-30T19:16:46.910Z,58.02
2018-08-30T19:19:19.482Z,57.77
2018-08-30T19:21:48.573Z,58.06
2018-08-30T19:24:22.991Z,58.06
2018-08-30T19:26:52.052Z,58.33
2018-08-30T19:29:21.306Z,58.64
2018-08-30T19:31:50.470Z,58.87
2018-08-30T19:34:19.616Z,58.86
2018-08-30T19:36:51.420Z,58.95
2018-08-30T19:39:23.741Z,59.58
2018-08-30T19:41:56.001Z,59.79
2018-08-30T19:44:28.662Z,60.66
2018-08-30T19:47:05.856Z,60.69
2018-08-30T19:49:38.857Z,61.39
2018-08-30T19:52:16.974Z,61.08
2018-08-30T19:54:49.460Z,60.93
2018-08-30T19:57:21.892Z,61.05
2018-08-30T19:59:53.975Z,60.77
2018-08-30T20:02:26.132Z,61.53
2018-08-30T20:04:58.595Z,61.84
2018-08-30T20:07:31.166Z,62.06
2018-08-30T20:10:03.627Z,61.30
2018-08-30T20:12:36.143Z,61.36
2018-08-30T20:15:08.218Z,61.47
2018-08-30T20:17:40.272Z,61.63
2018-08-30T20:20:20.102Z,61.92
2018-08-30T20:22:54.442Z,61.63
2018-08-30T20:25:28.878Z,61.84
2018-08-30T20:28:01.058Z,61.90
2018-08-30T20:30:34.702Z,62.56
2018-08-30T20:33:08.272Z,62.89
2018-08-30T20:35:40.624Z,63.10
2018-08-30T20:38:14.543Z,62.89
2018-08-30T20:40:46.960Z,63.37
2018-08-30T20:43:19.933Z,63.12
2018-08-30T20:45:56.268Z,63.37
2018-08-30T20:48:33.857Z,63.62
2018-08-30T20:51:25.159Z,63.90
2018-08-30T20:53:58.541Z,63.98
2018-08-30T20:56:32.556Z,64.08
2018-08-30T20:59:14.350Z,64.75
2018-08-30T21:02:05.485Z,65.02
2018-08-30T21:04:38.635Z,65.08
2018-08-30T21:07:23.399Z,65.03
2018-08-30T21:10:10.560Z,64.64
2018-08-30T21:12:56.261Z,64.94
2018-08-30T21:15:42.389Z,65.29
2018-08-30T21:18:26.645Z,65.43
2018-08-30T21:21:12.247Z,65.98
2018-08-30T21:23:56.360Z,64.81
2018-08-30T21:26:45.985Z,65.38
2018-08-30T21:29:35.034Z,65.58
2018-08-30T21:32:24.607Z,65.40
2018-08-30T21:35:13.310Z,65.73
2018-08-30T21:38:03.041Z,66.06
2018-08-30T21:40:51.807Z,65.87
2018-08-30T21:43:41.669Z,66.07
2018-08-30T21:46:30.397Z,65.99
2018-08-30T21:49:20.522Z,66.24
2018-08-30T21:52:10.270Z,66.21
2018-08-30T21:54:59.127Z,66.09
2018-08-30T21:57:49.101Z,66.48
2018-08-30T22:00:38.258Z,66.45
2018-08-30T22:03:29.898Z,67.37
2018-08-30T22:06:18.411Z,66.63
2018-08-30T22:09:07.100Z,67.19
2018-08-30T22:11:54.697Z,67.20
2018-08-30T22:14:43.983Z,67.43
2018-08-30T22:17:31.773Z,67.65
2018-08-30T22:20:21.328Z,67.81
2018-08-30T22:23:08.983Z,68.06
2018-08-30T22:25:58.144Z,67.92
2018-08-30T22:28:45.912Z,67.98
2018-08-30T22:31:35.005Z,68.37
2018-08-30T22:34:22.842Z,68.35
2018-08-30T22:37:11.614Z,68.28
2018-08-30T22:39:59.620Z,68.68
2018-08-30T22:42:49.209Z,68.82
2018-08-30T22:45:37.414Z,68.72
2018-08-30T22:48:12.489Z,69.33
2018-08-30T22:50:45.016Z,69.87
2018-08-30T22:53:17.572Z,70.27
2018-08-30T22:55:49.638Z,70.33
2018-08-30T22:58:21.910Z,70.25
2018-08-30T23:00:53.750Z,70.72
2018-08-30T23:03:26.190Z,70.34
2018-08-30T23:05:58.542Z,70.61
2018-08-30T23:08:30.773Z,71.33
2018-08-30T23:11:02.614Z,71.20
2018-08-30T23:13:31.724Z,70.90
2018-08-30T23:16:00.855Z,71.78
2018-08-30T23:18:29.955Z,71.98
2018-08-30T23:20:59.060Z,71.52
2018-08-30T23:23:28.149Z,72.20
2018-08-30T23:25:57.239Z,71.59
2018-08-30T23:28:26.295Z,72.24
2018-08-30T23:30:55.330Z,71.99
2018-08-30T23:33:24.381Z,72.61
2018-08-30T23:35:53.436Z,72.82
2018-08-30T23:38:22.490Z,72.85
2018-08-30T23:40:51.540Z,72.62
2018-08-30T23:43:20.645Z,72.57
2018-08-30T23:45:49.728Z,73.06
2018-08-30T23:48:18.774Z,72.68
2018-08-30T23:50:47.855Z,72.70
2018-08-30T23:53:16.936Z,73.36
2018-08-30T23:55:45.994Z,73.51
2018-08-30T23:58:26.125Z,73.57
